Time;durP1;ratioP1;P1;durP2;ratioP2;P2;SDS_P1;SDS_P2;PMS_P1;PMS_P2;Temp;Humidity;BMP_temperature;BMP_pressure;BME280_temperature;BME280_humidity;BME280_pressure;Samples;Min_cycle;Max_cycle;Signal;HPM_P1;HPM_P2
2022/04/24 00:01:06;;;;;;;30.23;20.85;;;28.80;99.90;;;;;;1851900;77;21114;-83
2022/04/24 00:03:38;;;;;;;24.92;21.62;;;28.70;99.90;;;;;;1830809;77;21210;-84
2022/04/24 00:06:09;;;;;;;34.13;23.73;;;28.60;99.90;;;;;;1836051;77;21181;-84
2022/04/24 00:08:41;;;;;;;29.32;22.67;;;28.70;99.90;;;;;;1849967;77;21106;-83
2022/04/24 00:11:12;;;;;;;31.15;23.02;;;28.70;99.90;;;;;;1844680;77;21205;-84
2022/04/24 00:13:43;;;;;;;29.18;21.93;;;28.80;99.90;;;;;;1847524;77;21145;-83
2022/04/24 00:16:14;;;;;;;28.05;22.42;;;28.80;99.90;;;;;;1835813;77;21173;-83
2022/04/24 00:18:45;;;;;;;28.10;22.65;;;28.80;99.90;;;;;;1852256;77;21551;-83
2022/04/24 00:21:16;;;;;;;32.08;24.10;;;29.00;99.90;;;;;;1832172;77;21150;-83
2022/04/24 00:23:47;;;;;;;29.15;21.73;;;28.90;99.90;;;;;;1827157;77;21169;-83
2022/04/24 00:26:18;;;;;;;28.73;22.48;;;28.90;99.90;;;;;;1826920;77;21149;-85
2022/04/24 00:28:49;;;;;;;27.50;21.23;;;29.00;99.90;;;;;;1822314;79;21110;-83
2022/04/24 00:31:21;;;;;;;26.90;20.95;;;29.20;99.90;;;;;;1846376;77;21183;-82
2022/04/24 00:33:52;;;;;;;28.40;19.65;;;29.20;99.90;;;;;;1843935;77;21157;-84
2022/04/24 00:36:23;;;;;;;27.17;19.62;;;29.20;99.90;;;;;;1848842;77;21165;-84
2022/04/24 00:38:54;;;;;;;21.82;18.48;;;29.30;99.90;;;;;;1841717;76;21166;-84
2022/04/24 00:41:25;;;;;;;24.18;19.35;;;29.30;99.90;;;;;;1848618;76;21182;-83
2022/04/24 00:43:58;;;;;;;27.77;20.08;;;29.20;99.90;;;;;;1831568;76;21680;-84
2022/04/24 00:46:35;;;;;;;23.75;18.67;;;29.30;99.90;;;;;;1851303;76;21190;-84
2022/04/24 00:49:10;;;;;;;24.40;17.62;;;29.30;99.90;;;;;;1841503;77;21164;-83
2022/04/24 00:51:45;;;;;;;26.87;19.48;;;29.30;99.90;;;;;;1819651;77;21194;-83
2022/04/24 00:54:14;;;;;;;26.40;18.77;;;29.40;99.90;;;;;;1821062;77;21269;-85
2022/04/24 00:56:45;;;;;;;25.30;18.57;;;29.40;99.90;;;;;;1837737;77;21189;-85
2022/04/24 00:59:17;;;;;;;24.05;18.92;;;29.60;99.90;;;;;;1851693;77;21122;-83
2022/04/24 01:01:48;;;;;;;28.27;19.90;;;29.50;99.90;;;;;;1835888;77;21233;-85
2022/04/24 01:04:20;;;;;;;25.72;19.70;;;29.60;99.90;;;;;;1850727;77;21130;-84
2022/04/24 01:06:52;;;;;;;25.00;19.17;;;29.60;99.90;;;;;;1849884;77;21114;-84
2022/04/24 01:09:24;;;;;;;26.20;20.10;;;29.50;99.90;;;;;;1850842;77;21165;-83
2022/04/24 01:11:57;;;;;;;25.97;21.35;;;29.70;99.90;;;;;;1849351;77;21090;-83
2022/04/24 01:14:30;;;;;;;27.85;20.05;;;29.60;99.90;;;;;;1824342;77;21173;-82
2022/04/24 01:17:04;;;;;;;29.37;20.97;;;29.70;99.90;;;;;;1831722;77;21142;-84
2022/04/24 01:19:36;;;;;;;25.97;21.05;;;29.70;99.90;;;;;;1847847;78;21264;-83
2022/04/24 01:22:07;;;;;;;26.23;20.02;;;29.80;99.90;;;;;;1831365;77;21685;-84
2022/04/24 01:24:38;;;;;;;25.20;19.20;;;29.90;99.90;;;;;;1849471;77;21090;-85
2022/04/24 01:27:09;;;;;;;23.87;18.52;;;29.80;99.90;;;;;;1810597;77;21160;-84
2022/04/24 01:29:39;;;;;;;25.95;18.37;;;30.00;99.90;;;;;;1838383;76;21106;-85
2022/04/24 01:32:11;;;;;;;25.55;19.67;;;29.90;99.90;;;;;;1846641;77;21122;-84
2022/04/24 01:34:41;;;;;;;20.95;15.72;;;29.90;99.90;;;;;;1852505;76;21604;-83
2022/04/24 01:37:12;;;;;;;21.62;15.85;;;30.00;99.90;;;;;;1876368;76;21140;-83
2022/04/24 01:39:45;;;;;;;21.23;15.35;;;30.30;99.90;;;;;;1838924;76;21223;-84
2022/04/24 01:42:16;;;;;;;20.23;14.18;;;30.20;99.90;;;;;;1840229;77;21602;-84
2022/04/24 01:44:47;;;;;;;18.92;13.83;;;30.20;99.90;;;;;;1850104;77;21161;-83
2022/04/24 01:47:18;;;;;;;19.10;14.65;;;30.40;99.90;;;;;;1847230;77;21185;-84
2022/04/24 01:49:49;;;;;;;19.17;15.25;;;30.50;99.90;;;;;;1842933;77;21079;-83
2022/04/24 01:52:20;;;;;;;18.42;13.90;;;30.60;99.90;;;;;;1850534;77;21153;-83
2022/04/24 01:54:50;;;;;;;22.75;14.45;;;30.60;99.90;;;;;;1820921;76;21148;-84
2022/04/24 01:57:23;;;;;;;26.07;14.28;;;31.10;99.90;;;;;;1829284;77;21153;-84
2022/04/24 01:59:55;;;;;;;24.18;14.45;;;31.10;99.70;;;;;;1825241;78;21220;-84
2022/04/24 02:02:26;;;;;;;21.75;14.40;;;31.00;99.20;;;;;;1829841;77;21165;-83
2022/04/24 02:04:57;;;;;;;16.90;13.10;;;31.30;99.00;;;;;;1821739;77;21179;-83
2022/04/24 02:07:28;;;;;;;18.05;13.00;;;31.30;98.70;;;;;;1837191;77;21075;-83
2022/04/24 02:09:59;;;;;;;19.55;13.48;;;31.20;98.60;;;;;;1830415;77;21173;-83
2022/04/24 02:12:30;;;;;;;20.90;14.00;;;31.30;98.60;;;;;;1801644;79;21227;-84
2022/04/24 02:15:03;;;;;;;25.52;13.32;;;31.40;98.20;;;;;;1805442;78;21155;-83
2022/04/24 02:17:34;;;;;;;19.50;12.53;;;31.70;98.00;;;;;;1800620;78;21226;-83
2022/04/24 02:20:05;;;;;;;18.95;12.73;;;31.80;97.40;;;;;;1800949;78;21245;-83
2022/04/24 02:22:37;;;;;;;17.52;12.10;;;31.70;97.20;;;;;;1816798;78;21507;-84
2022/04/24 02:25:08;;;;;;;18.77;12.37;;;31.80;97.00;;;;;;1803268;78;21158;-84
2022/04/24 02:27:40;;;;;;;17.73;12.20;;;31.90;96.70;;;;;;1806747;78;21162;-85
2022/04/24 02:30:14;;;;;;;17.12;12.33;;;32.00;96.70;;;;;;1801151;78;21221;-84
2022/04/24 02:32:45;;;;;;;17.48;11.40;;;31.80;96.60;;;;;;1802790;79;21182;-82
2022/04/24 02:35:16;;;;;;;19.25;11.93;;;31.90;97.10;;;;;;1801169;79;21100;-83
2022/04/24 02:37:47;;;;;;;16.12;11.25;;;31.90;96.40;;;;;;1810820;77;21178;-84
2022/04/24 02:40:21;;;;;;;21.02;12.35;;;32.10;95.80;;;;;;1795003;79;21112;-84
2022/04/24 02:42:52;;;;;;;16.97;11.75;;;32.20;95.40;;;;;;1800062;78;21246;-83
2022/04/24 02:45:23;;;;;;;14.38;11.68;;;32.40;95.40;;;;;;1809091;77;21077;-84
2022/04/24 02:47:54;;;;;;;16.25;11.03;;;32.70;95.80;;;;;;1841608;77;21176;-83
2022/04/24 02:50:27;;;;;;;14.90;10.95;;;32.60;97.70;;;;;;1833933;78;21121;-84
2022/04/24 02:52:58;;;;;;;16.73;11.70;;;32.60;98.20;;;;;;1830366;78;21138;-84
2022/04/24 02:55:29;;;;;;;17.05;11.60;;;32.90;98.50;;;;;;1846155;76;21161;-83
2022/04/24 02:58:03;;;;;;;15.78;10.48;;;32.70;98.30;;;;;;1849602;76;21145;-84
2022/04/24 03:00:49;;;;;;;14.83;10.53;;;33.10;98.60;;;;;;1847479;77;21206;-83
2022/04/24 03:03:11;;;;;;;16.60;10.95;;;33.20;96.20;;;;;;1845648;77;21173;-85
2022/04/24 03:05:45;;;;;;;14.70;11.28;;;33.00;75.70;;;;;;1848176;77;21164;-84
2022/04/24 03:08:18;;;;;;;16.42;11.08;;;33.00;75.60;;;;;;1855007;75;21133;-84
2022/04/24 03:10:49;;;;;;;15.68;10.63;;;33.20;74.80;;;;;;1845883;77;21149;-84
2022/04/24 03:13:20;;;;;;;14.87;10.25;;;33.30;74.30;;;;;;1837399;77;21086;-84
2022/04/24 03:15:51;;;;;;;15.10;10.80;;;33.40;74.00;;;;;;1849014;77;21594;-83
2022/04/24 03:18:21;;;;;;;13.60;10.23;;;33.50;74.10;;;;;;1842041;76;21141;-84
2022/04/24 03:20:52;;;;;;;14.60;10.72;;;33.60;74.50;;;;;;1843874;77;21092;-84
2022/04/24 03:23:23;;;;;;;15.18;10.18;;;33.80;72.80;;;;;;1817555;78;21180;-83
2022/04/24 03:25:55;;;;;;;13.50;10.10;;;33.90;72.70;;;;;;1851018;77;21081;-82
2022/04/24 03:28:26;;;;;;;11.85;10.50;;;34.00;72.00;;;;;;1837880;77;21135;-82
2022/04/24 03:30:57;;;;;;;16.00;10.23;;;34.00;71.30;;;;;;1845234;77;21145;-84
2022/04/24 03:33:28;;;;;;;12.15;9.70;;;34.10;71.00;;;;;;1853783;76;21172;-85
2022/04/24 03:35:59;;;;;;;14.20;9.98;;;34.10;71.10;;;;;;1854612;76;21087;-84
2022/04/24 03:38:31;;;;;;;13.93;10.28;;;34.10;70.00;;;;;;1830142;77;21091;-84
2022/04/24 03:41:05;;;;;;;17.40;11.28;;;34.10;70.50;;;;;;1844035;76;21157;-84
2022/04/24 03:43:42;;;;;;;15.60;9.90;;;34.10;70.00;;;;;;1846863;76;21208;-83
2022/04/24 03:46:15;;;;;;;14.03;9.88;;;34.20;70.50;;;;;;1838886;76;21133;-83
2022/04/24 03:48:52;;;;;;;16.27;9.98;;;34.20;70.90;;;;;;1842094;77;21138;-84
2022/04/24 03:51:24;;;;;;;13.85;10.45;;;34.40;70.00;;;;;;1844758;75;21177;-84
2022/04/24 03:53:55;;;;;;;12.58;10.13;;;34.40;68.90;;;;;;1847368;76;21193;-83
2022/04/24 03:56:31;;;;;;;13.93;9.93;;;34.30;69.70;;;;;;1846780;76;21180;-84
2022/04/24 03:59:00;;;;;;;14.80;10.18;;;34.20;70.30;;;;;;1845626;77;21223;-84
2022/04/24 04:01:32;;;;;;;14.25;9.93;;;34.30;69.60;;;;;;1838700;77;21141;-85
2022/04/24 04:04:04;;;;;;;11.22;9.50;;;34.40;68.90;;;;;;1830020;77;21134;-83
2022/04/24 04:06:35;;;;;;;15.60;9.83;;;34.50;69.80;;;;;;1844332;76;21089;-83
2022/04/24 04:09:10;;;;;;;15.23;10.25;;;34.60;67.30;;;;;;1804053;79;21250;-83
2022/04/24 04:11:41;;;;;;;13.28;10.40;;;34.70;67.10;;;;;;1809625;78;21166;-83
2022/04/24 04:14:12;;;;;;;16.02;10.25;;;34.90;67.30;;;;;;1813132;79;21195;-84
2022/04/24 04:16:43;;;;;;;15.30;10.68;;;34.90;67.00;;;;;;1844484;77;21220;-83
2022/04/24 04:19:14;;;;;;;15.83;10.78;;;35.00;66.90;;;;;;1849068;77;21227;-83
2022/04/24 04:21:45;;;;;;;13.78;10.15;;;35.10;66.20;;;;;;1849075;77;21411;-83
2022/04/24 04:24:35;;;;;;;14.90;9.95;;;35.20;66.40;;;;;;1839631;76;21075;-85
2022/04/24 04:27:07;;;;;;;17.70;10.60;;;35.30;68.10;;;;;;1864274;75;21586;-83
2022/04/24 04:29:38;;;;;;;14.53;9.95;;;35.30;66.30;;;;;;1864367;76;21180;-83
2022/04/24 04:32:09;;;;;;;13.13;10.20;;;35.30;64.90;;;;;;1866538;75;21102;-84
2022/04/24 04:34:40;;;;;;;13.62;10.82;;;35.30;65.00;;;;;;1871344;75;21530;-83
2022/04/24 04:37:11;;;;;;;13.95;9.83;;;35.30;64.50;;;;;;1869623;76;21194;-84
2022/04/24 04:39:42;;;;;;;11.57;9.35;;;35.20;64.00;;;;;;1868109;76;21245;-84
2022/04/24 04:42:13;;;;;;;11.90;9.68;;;35.00;64.60;;;;;;1839522;76;21164;-83
2022/04/24 04:44:46;;;;;;;18.85;10.68;;;34.80;64.70;;;;;;1870214;76;21156;-84
2022/04/24 04:47:17;;;;;;;11.68;9.53;;;34.60;65.00;;;;;;1865205;76;21066;-84
2022/04/24 04:49:48;;;;;;;12.63;9.53;;;34.70;65.50;;;;;;1863176;76;21090;-83
2022/04/24 04:52:19;;;;;;;13.48;9.30;;;34.80;64.40;;;;;;1851941;76;21118;-84
2022/04/24 04:54:53;;;;;;;11.22;9.28;;;34.80;63.80;;;;;;1873686;75;21153;-84
2022/04/24 04:57:24;;;;;;;12.47;9.85;;;34.80;65.50;;;;;;1853675;75;21137;-83
2022/04/24 04:59:55;;;;;;;12.03;9.08;;;34.80;65.60;;;;;;1859408;75;21067;-84
2022/04/24 05:02:26;;;;;;;12.95;9.20;;;34.80;63.70;;;;;;1861869;76;21586;-84
2022/04/24 05:04:59;;;;;;;15.08;10.32;;;34.70;63.10;;;;;;1811021;78;21207;-83
2022/04/24 05:07:31;;;;;;;12.75;9.95;;;34.50;62.90;;;;;;1792633;80;22053;-85
2022/04/24 05:10:01;;;;;;;11.00;9.23;;;34.40;63.90;;;;;;1809470;78;21650;-83
2022/04/24 05:12:32;;;;;;;14.45;8.55;;;34.40;65.20;;;;;;1805571;78;21212;-84
2022/04/24 05:15:05;;;;;;;12.15;9.65;;;34.40;64.50;;;;;;1820565;77;21209;-84
2022/04/24 05:17:38;;;;;;;13.28;8.88;;;34.50;62.60;;;;;;1792637;79;21606;-85
2022/04/24 05:20:11;;;;;;;12.40;9.23;;;34.50;62.80;;;;;;1814758;76;21138;-82
2022/04/24 05:22:43;;;;;;;10.15;8.38;;;34.60;65.20;;;;;;1815900;77;21204;-84
2022/04/24 05:25:14;;;;;;;10.93;8.80;;;34.70;63.80;;;;;;1823432;77;21268;-84
2022/04/24 05:27:47;;;;;;;13.00;9.33;;;34.80;63.30;;;;;;1813677;77;21185;-84
2022/04/24 05:30:20;;;;;;;10.13;8.98;;;34.90;62.00;;;;;;1784017;79;21113;-84
2022/04/24 05:32:51;;;;;;;12.90;9.63;;;35.20;61.60;;;;;;1791846;78;21167;-85
2022/04/24 05:35:26;;;;;;;9.43;8.53;;;35.20;61.10;;;;;;1809676;78;21223;-83
2022/04/24 05:37:58;;;;;;;11.55;8.68;;;35.30;60.80;;;;;;1819130;78;21103;-85
2022/04/24 05:40:29;;;;;;;13.03;8.68;;;35.40;61.40;;;;;;1787072;79;21101;-84
2022/04/24 05:42:59;;;;;;;11.75;8.38;;;35.50;61.70;;;;;;1787119;80;21081;-83
2022/04/24 05:45:33;;;;;;;9.95;8.18;;;35.70;63.60;;;;;;1800698;78;21187;-83
2022/04/24 05:48:05;;;;;;;11.43;8.95;;;35.70;63.50;;;;;;1798834;79;21219;-84
2022/04/24 05:50:36;;;;;;;13.78;9.13;;;35.60;60.00;;;;;;1814592;78;21141;-83
2022/04/24 05:53:07;;;;;;;10.53;8.78;;;35.50;59.40;;;;;;1824847;78;21177;-84
2022/04/24 05:55:38;;;;;;;13.58;9.05;;;35.30;60.70;;;;;;1817294;77;21036;-85
2022/04/24 05:58:10;;;;;;;10.65;9.55;;;35.30;59.90;;;;;;1817110;78;21183;-85
2022/04/24 06:00:59;;;;;;;12.15;9.28;;;35.30;58.80;;;;;;1813894;78;21683;-83
2022/04/24 06:03:30;;;;;;;13.90;9.10;;;35.40;59.40;;;;;;1827866;78;21103;-84
2022/04/24 06:06:00;;;;;;;11.78;8.60;;;35.40;58.40;;;;;;1817391;78;21095;-84
2022/04/24 06:08:34;;;;;;;10.70;8.13;;;35.50;58.30;;;;;;1809795;78;21162;-84
2022/04/24 06:11:05;;;;;;;12.00;7.62;;;35.60;58.50;;;;;;1820173;78;22204;-84
2022/04/24 06:13:36;;;;;;;9.23;8.00;;;35.60;58.00;;;;;;1828040;78;21119;-84
2022/04/24 06:16:08;;;;;;;11.45;8.85;;;35.60;57.20;;;;;;1820580;78;21262;-85
2022/04/24 06:18:39;;;;;;;12.78;8.88;;;35.70;57.40;;;;;;1766795;78;21209;-83
2022/04/24 06:21:14;;;;;;;11.50;8.40;;;35.70;57.70;;;;;;1806790;78;21484;-83
2022/04/24 06:23:46;;;;;;;11.65;8.80;;;35.80;57.90;;;;;;1825872;78;21252;-83
2022/04/24 06:26:18;;;;;;;14.28;7.95;;;35.90;57.60;;;;;;1812656;78;21106;-83
2022/04/24 06:28:49;;;;;;;12.40;8.23;;;35.80;57.10;;;;;;1828575;78;21079;-84
2022/04/24 06:31:20;;;;;;;11.28;8.65;;;35.70;57.00;;;;;;1820047;78;21100;-84
2022/04/24 06:33:51;;;;;;;11.63;9.20;;;35.60;57.40;;;;;;1798987;78;21523;-83
2022/04/24 06:36:22;;;;;;;11.22;8.85;;;35.50;57.30;;;;;;1806226;78;21099;-84
2022/04/24 06:38:53;;;;;;;14.38;9.40;;;35.60;58.10;;;;;;1789809;80;21172;-86
2022/04/24 06:41:24;;;;;;;12.40;9.28;;;35.60;57.90;;;;;;1829684;78;21267;-85
2022/04/24 06:43:55;;;;;;;12.80;8.45;;;35.70;57.00;;;;;;1803206;79;21135;-83
2022/04/24 06:46:26;;;;;;;9.53;8.10;;;35.80;57.20;;;;;;1804219;79;21225;-84
2022/04/24 06:48:57;;;;;;;9.88;7.85;;;35.80;57.30;;;;;;1811630;78;21276;-84
2022/04/24 06:51:28;;;;;;;12.70;7.95;;;35.80;56.00;;;;;;1811223;78;21058;-83
2022/04/24 06:53:59;;;;;;;10.05;6.97;;;35.70;55.50;;;;;;1813401;78;21172;-84
2022/04/24 06:56:30;;;;;;;11.30;7.25;;;35.70;55.60;;;;;;1807501;79;21111;-85
2022/04/24 06:59:01;;;;;;;11.28;7.75;;;35.70;55.30;;;;;;1787985;80;21101;-84
2022/04/24 07:01:36;;;;;;;8.98;7.67;;;35.80;55.20;;;;;;1810544;79;21233;-84
2022/04/24 07:04:07;;;;;;;13.65;8.60;;;35.80;55.80;;;;;;1816432;79;21162;-85
2022/04/24 07:06:38;;;;;;;16.40;12.47;;;35.80;55.40;;;;;;1814869;79;21142;-85
2022/04/24 07:09:10;;;;;;;10.35;7.47;;;35.80;57.00;;;;;;1808131;79;21201;-85
2022/04/24 07:11:41;;;;;;;11.93;8.28;;;35.90;55.80;;;;;;1812526;79;21087;-85
2022/04/24 07:14:12;;;;;;;7.62;6.37;;;36.00;55.60;;;;;;1805526;79;21159;-85
2022/04/24 07:16:43;;;;;;;10.45;6.95;;;36.10;54.50;;;;;;1798874;79;21111;-84
2022/04/24 07:19:14;;;;;;;11.75;7.10;;;36.20;55.00;;;;;;1809642;79;21142;-85
2022/04/24 07:21:48;;;;;;;8.58;6.65;;;36.20;54.30;;;;;;1812198;78;21469;-86
2022/04/24 07:24:17;;;;;;;9.98;7.20;;;36.10;53.20;;;;;;1814422;79;21119;-86
2022/04/24 07:26:48;;;;;;;8.28;6.47;;;36.10;53.80;;;;;;1804610;78;21096;-86
2022/04/24 07:29:19;;;;;;;15.88;7.78;;;36.20;53.40;;;;;;1782767;80;21155;-89
2022/04/24 07:31:50;;;;;;;10.95;7.45;;;36.10;52.70;;;;;;1788148;80;21093;-85
2022/04/24 07:34:23;;;;;;;8.50;6.85;;;36.10;52.80;;;;;;1777690;80;21191;-86
2022/04/24 07:36:55;;;;;;;11.60;7.08;;;36.10;52.70;;;;;;1776002;80;21210;-86
2022/04/24 07:39:31;;;;;;;9.83;7.15;;;36.00;52.90;;;;;;1777142;80;21100;-86
2022/04/24 07:42:01;;;;;;;11.88;7.33;;;36.00;53.90;;;;;;1778024;80;21214;-86
2022/04/24 07:44:32;;;;;;;8.95;7.08;;;36.00;53.90;;;;;;1776463;80;21552;-86
2022/04/24 07:47:03;;;;;;;9.40;7.40;;;36.00;53.80;;;;;;1770255;80;21212;-85
2022/04/24 07:49:34;;;;;;;10.60;7.55;;;36.00;53.50;;;;;;1844226;77;21130;-86
2022/04/24 07:52:05;;;;;;;9.93;7.28;;;36.00;53.80;;;;;;1849295;77;21142;-86
2022/04/24 07:54:39;;;;;;;9.73;7.17;;;36.00;53.10;;;;;;1851590;77;21145;-85
2022/04/24 07:57:11;;;;;;;11.60;7.78;;;36.00;54.80;;;;;;1836876;77;21539;-85
2022/04/24 07:59:42;;;;;;;10.03;7.33;;;36.10;53.50;;;;;;1851260;77;21047;-85
2022/04/24 08:02:13;;;;;;;11.25;6.65;;;36.10;53.10;;;;;;1845564;77;21209;-85
2022/04/24 08:04:45;;;;;;;8.90;6.45;;;36.10;53.90;;;;;;1836449;77;21122;-85
2022/04/24 08:07:22;;;;;;;9.55;6.92;;;36.10;53.10;;;;;;1841218;77;21137;-85
2022/04/24 08:09:49;;;;;;;13.68;7.20;;;36.10;53.20;;;;;;1836941;76;21145;-85
2022/04/24 08:12:20;;;;;;;11.65;6.87;;;36.10;53.50;;;;;;1851958;77;21610;-86
2022/04/24 08:14:51;;;;;;;9.45;6.62;;;36.10;53.80;;;;;;1855303;77;21161;-85
2022/04/24 08:17:22;;;;;;;8.68;6.53;;;36.10;53.10;;;;;;1852148;77;21087;-86
2022/04/24 08:19:53;;;;;;;15.68;6.95;;;36.10;53.90;;;;;;1841534;77;21253;-85
2022/04/24 08:22:24;;;;;;;9.65;6.97;;;36.10;53.80;;;;;;1845719;77;21193;-85
2022/04/24 08:24:55;;;;;;;8.68;7.05;;;36.10;54.40;;;;;;1846904;77;21182;-85
2022/04/24 08:27:26;;;;;;;10.10;7.33;;;36.10;54.50;;;;;;1843397;77;21197;-85
2022/04/24 08:29:57;;;;;;;8.50;6.62;;;36.10;53.90;;;;;;1844422;77;21190;-85
2022/04/24 08:32:29;;;;;;;12.47;7.25;;;36.10;54.40;;;;;;1842652;77;21239;-86
2022/04/24 08:35:00;;;;;;;10.35;7.00;;;36.10;53.80;;;;;;1842584;77;21263;-84
2022/04/24 08:37:31;;;;;;;8.83;6.65;;;36.10;54.00;;;;;;1846992;77;21267;-85
2022/04/24 08:40:03;;;;;;;15.35;8.18;;;36.00;54.80;;;;;;1839565;77;21114;-83
2022/04/24 08:42:35;;;;;;;11.10;6.67;;;36.00;54.00;;;;;;1841694;77;21051;-83
2022/04/24 08:45:07;;;;;;;6.85;5.97;;;36.00;54.80;;;;;;1858510;77;21149;-84
2022/04/24 08:47:40;;;;;;;12.23;6.83;;;35.90;54.30;;;;;;1847242;77;21196;-84
2022/04/24 08:50:12;;;;;;;10.50;6.53;;;35.90;55.00;;;;;;1840958;77;21079;-85
2022/04/24 08:52:45;;;;;;;7.90;6.67;;;36.00;54.20;;;;;;1855906;76;21178;-84
2022/04/24 08:55:17;;;;;;;12.85;6.62;;;35.90;54.10;;;;;;1854250;77;21111;-84
2022/04/24 08:57:48;;;;;;;10.05;6.60;;;35.90;53.90;;;;;;1853543;77;21677;-85
2022/04/24 09:00:20;;;;;;;8.85;6.60;;;35.90;54.00;;;;;;1852811;77;21122;-85
2022/04/24 09:02:54;;;;;;;10.93;6.55;;;35.90;53.90;;;;;;1861077;76;21168;-84
2022/04/24 09:05:25;;;;;;;9.25;6.30;;;35.80;52.60;;;;;;1825170;77;21153;-84
2022/04/24 09:07:58;;;;;;;10.08;6.65;;;35.80;53.00;;;;;;1854216;77;21093;-84
2022/04/24 09:10:31;;;;;;;10.55;8.03;;;35.80;53.20;;;;;;1858418;77;21055;-84
2022/04/24 09:13:03;;;;;;;10.28;6.78;;;35.80;53.50;;;;;;1856285;77;21719;-84
2022/04/24 09:15:37;;;;;;;9.35;6.10;;;35.80;53.60;;;;;;1843151;76;21123;-85
2022/04/24 09:18:08;;;;;;;11.08;6.87;;;35.80;53.70;;;;;;1847686;77;21145;-83
2022/04/24 09:20:42;;;;;;;9.65;6.60;;;35.80;54.10;;;;;;1844063;77;21140;-84
2022/04/24 09:23:14;;;;;;;7.87;6.03;;;35.80;53.50;;;;;;1865613;77;21188;-82
2022/04/24 09:25:45;;;;;;;11.38;6.50;;;35.80;53.80;;;;;;1851838;77;21129;-84
2022/04/24 09:28:16;;;;;;;12.85;7.28;;;35.80;54.00;;;;;;1849381;76;21185;-84
2022/04/24 09:30:49;;;;;;;14.93;6.90;;;35.80;53.50;;;;;;1850309;77;21058;-84
2022/04/24 09:33:21;;;;;;;9.45;6.55;;;35.80;53.10;;;;;;1777414;79;21231;-84
2022/04/24 09:35:55;;;;;;;9.78;6.55;;;35.80;54.50;;;;;;1809516;79;21073;-84
2022/04/24 09:38:26;;;;;;;8.65;6.20;;;35.70;53.20;;;;;;1813225;79;21263;-84
2022/04/24 09:40:58;;;;;;;12.55;6.60;;;35.70;53.80;;;;;;1808702;78;21067;-84
2022/04/24 09:43:30;;;;;;;9.80;6.90;;;35.60;53.70;;;;;;1776378;80;21608;-83
2022/04/24 09:46:01;;;;;;;10.40;6.35;;;35.70;54.20;;;;;;1788748;79;21103;-84
2022/04/24 09:48:32;;;;;;;8.10;6.35;;;35.60;53.90;;;;;;1809098;79;21154;-83
2022/04/24 09:51:03;;;;;;;9.85;6.83;;;35.60;53.70;;;;;;1808578;78;21095;-83
2022/04/24 09:53:37;;;;;;;9.68;6.67;;;35.60;54.10;;;;;;1792795;79;21112;-84
2022/04/24 09:56:09;;;;;;;9.40;6.65;;;35.50;54.00;;;;;;1764216;81;21208;-84
2022/04/24 09:58:41;;;;;;;9.23;5.97;;;35.50;54.50;;;;;;1779724;80;21260;-83
2022/04/24 10:01:13;;;;;;;9.80;7.03;;;35.50;54.00;;;;;;1795611;79;21090;-82
2022/04/24 10:03:46;;;;;;;8.48;6.40;;;35.50;54.50;;;;;;1821349;79;21130;-83
2022/04/24 10:06:17;;;;;;;8.83;6.78;;;35.50;54.80;;;;;;1819983;79;21633;-83
2022/04/24 10:08:50;;;;;;;8.93;6.12;;;35.40;54.10;;;;;;1793830;78;21118;-85
2022/04/24 10:11:23;;;;;;;12.65;6.53;;;35.40;53.60;;;;;;1818167;79;21091;-83
2022/04/24 10:13:58;;;;;;;7.85;6.33;;;35.40;53.50;;;;;;1796929;79;21652;-84
2022/04/24 10:16:31;;;;;;;7.83;6.35;;;35.30;53.70;;;;;;1794757;79;21233;-84
2022/04/24 10:19:05;;;;;;;10.95;6.42;;;35.40;54.10;;;;;;1842548;77;21099;-83
2022/04/24 10:21:38;;;;;;;9.20;6.60;;;35.30;54.60;;;;;;1853344;77;21169;-84
2022/04/24 10:24:12;;;;;;;9.68;7.35;;;35.30;54.50;;;;;;1865374;76;21547;-83
2022/04/24 10:26:50;;;;;;;8.48;6.42;;;35.30;54.90;;;;;;1834842;78;21091;-83
2022/04/24 10:29:21;;;;;;;10.48;7.15;;;35.30;54.40;;;;;;1836798;77;21424;-84
2022/04/24 10:31:52;;;;;;;10.50;6.95;;;35.30;54.90;;;;;;1839327;77;21168;-82
2022/04/24 10:34:24;;;;;;;9.93;6.97;;;35.20;54.90;;;;;;1857903;77;21224;-82
2022/04/24 10:36:58;;;;;;;11.45;7.55;;;35.20;55.10;;;;;;1866716;77;21048;-84
2022/04/24 10:39:33;;;;;;;13.53;7.53;;;35.20;54.90;;;;;;1866860;77;21137;-84
2022/04/24 10:42:05;;;;;;;12.60;7.08;;;35.20;54.80;;;;;;1866920;77;21154;-84
2022/04/24 10:44:42;;;;;;;10.15;6.65;;;35.20;54.90;;;;;;1853380;77;21149;-85
2022/04/24 10:47:14;;;;;;;10.18;7.58;;;35.20;55.20;;;;;;1835438;77;21099;-83
2022/04/24 10:49:45;;;;;;;10.80;7.40;;;35.10;55.20;;;;;;1836352;78;21072;-83
2022/04/24 10:52:16;;;;;;;11.55;7.47;;;35.10;55.60;;;;;;1835852;78;21248;-84
2022/04/24 10:54:52;;;;;;;;;;;35.10;55.10;;;;;;1857864;77;21123;-83
2022/04/24 10:57:26;;;;;;;15.98;7.33;;;35.10;55.80;;;;;;1865898;77;20173;-83
2022/04/24 10:59:57;;;;;;;11.22;7.10;;;35.10;55.70;;;;;;1853091;77;21127;-83
2022/04/24 11:02:33;;;;;;;11.20;7.05;;;35.00;55.60;;;;;;1851494;76;21067;-84
2022/04/24 11:05:12;;;;;;;9.23;6.90;;;35.00;55.40;;;;;;1861381;77;21139;-84
2022/04/24 11:07:41;;;;;;;12.63;7.03;;;35.00;55.50;;;;;;1843577;77;21074;-84
2022/04/24 11:10:16;;;;;;;11.28;7.42;;;34.90;56.20;;;;;;1861746;77;21165;-83
2022/04/24 11:12:48;;;;;;;11.95;7.87;;;34.90;56.20;;;;;;1858066;77;21203;-83
2022/04/24 11:15:18;;;;;;;15.35;7.62;;;34.90;55.70;;;;;;1835657;77;21142;-83
2022/04/24 11:17:49;;;;;;;12.43;8.00;;;34.90;55.80;;;;;;1847027;77;21153;-84
2022/04/24 11:20:20;;;;;;;11.75;7.90;;;34.80;56.00;;;;;;1866916;77;21079;-84
2022/04/24 11:22:53;;;;;;;16.17;8.28;;;34.80;56.20;;;;;;1864822;77;21142;-84
2022/04/24 11:25:27;;;;;;;16.65;8.65;;;34.80;56.20;;;;;;1835590;78;21067;-83
2022/04/24 11:28:00;;;;;;;18.37;10.15;;;34.70;56.60;;;;;;1840096;77;21112;-83
2022/04/24 11:30:37;;;;;;;16.65;9.08;;;34.70;56.90;;;;;;1862987;77;21139;-83
2022/04/24 11:33:06;;;;;;;14.85;10.25;;;34.70;56.90;;;;;;1855181;77;21145;-82
2022/04/24 11:35:39;;;;;;;12.07;9.68;;;34.70;57.20;;;;;;1819324;79;21129;-84
2022/04/24 11:38:13;;;;;;;16.90;10.40;;;34.60;57.20;;;;;;1808967;79;21097;-84
2022/04/24 11:40:46;;;;;;;12.50;9.80;;;34.60;57.40;;;;;;1844670;77;21107;-85
2022/04/24 11:43:19;;;;;;;12.93;9.18;;;34.60;57.50;;;;;;1798141;78;21153;-83
2022/04/24 11:51:03;;;;;;;13.68;10.65;;;34.50;58.00;;;;;;1838312;77;21237;-83
2022/04/24 11:53:35;;;;;;;18.07;10.60;;;34.40;58.20;;;;;;1829673;77;21232;-83
2022/04/24 11:56:06;;;;;;;14.18;10.78;;;34.40;58.30;;;;;;1851478;77;21177;-84
2022/04/24 11:58:44;;;;;;;14.43;11.80;;;34.40;58.70;;;;;;1844003;77;21166;-83
2022/04/24 12:01:17;;;;;;;14.85;11.12;;;34.30;58.70;;;;;;1827983;77;21611;-83
2022/04/24 12:03:47;;;;;;;17.07;11.03;;;34.30;58.90;;;;;;1850702;77;21709;-83
2022/04/24 12:06:18;;;;;;;15.43;11.48;;;34.30;58.90;;;;;;1825955;77;21087;-84
2022/04/24 12:08:52;;;;;;;19.30;12.47;;;34.20;59.00;;;;;;1821566;79;21110;-84
2022/04/24 12:11:25;;;;;;;23.50;12.95;;;34.20;59.00;;;;;;1823994;77;21107;-82
2022/04/24 12:13:58;;;;;;;18.75;12.50;;;34.20;59.20;;;;;;1828482;77;21614;-84
2022/04/24 12:16:30;;;;;;;16.73;12.80;;;34.20;59.40;;;;;;1825798;77;21124;-84
2022/04/24 12:19:03;;;;;;;18.85;12.20;;;34.20;59.30;;;;;;1837716;77;21150;-84
2022/04/24 12:21:41;;;;;;;17.57;12.98;;;34.10;59.50;;;;;;1835223;78;21095;-84
2022/04/24 12:24:12;;;;;;;17.48;13.28;;;34.10;59.60;;;;;;1833353;78;21147;-83
2022/04/24 12:26:45;;;;;;;21.70;14.07;;;34.00;59.60;;;;;;1832295;78;21097;-84
2022/04/24 12:29:17;;;;;;;21.20;13.18;;;34.00;59.70;;;;;;1837853;78;21062;-84
2022/04/24 12:31:49;;;;;;;23.47;13.20;;;34.00;59.90;;;;;;1836192;78;21135;-83
2022/04/24 12:34:21;;;;;;;23.75;13.62;;;34.00;59.70;;;;;;1812975;79;21240;-84
2022/04/24 12:36:54;;;;;;;20.72;12.93;;;33.90;59.90;;;;;;1814006;77;21253;-85
2022/04/24 12:39:28;;;;;;;17.15;11.53;;;33.90;60.00;;;;;;1856825;77;21055;-84
2022/04/24 12:42:00;;;;;;;19.17;12.25;;;33.90;60.10;;;;;;1836005;77;21106;-84
2022/04/24 12:44:31;;;;;;;23.85;11.73;;;33.90;60.20;;;;;;1831343;77;21104;-86
2022/04/24 12:47:04;;;;;;;20.27;12.20;;;33.90;60.20;;;;;;1841158;77;21610;-84
2022/04/24 12:49:35;;;;;;;15.75;11.93;;;33.90;60.20;;;;;;1844459;77;21571;-82
2022/04/24 12:52:07;;;;;;;17.95;12.15;;;33.90;60.40;;;;;;1846925;76;21157;-82
2022/04/24 12:54:38;;;;;;;19.73;12.10;;;33.80;60.50;;;;;;1818668;77;21164;-83
2022/04/24 12:57:10;;;;;;;16.93;12.03;;;33.80;60.40;;;;;;1854337;76;21536;-84
2022/04/24 12:59:41;;;;;;;19.85;12.30;;;33.80;60.50;;;;;;1845830;77;21185;-85
2022/04/24 13:02:13;;;;;;;21.37;12.63;;;33.80;60.70;;;;;;1834857;77;21154;-83
2022/04/24 13:04:45;;;;;;;18.62;11.97;;;33.70;60.80;;;;;;1841364;77;21087;-83